sensor_id;sensor_type;location;lat;lon;timestamp;pressure;altitude;pressure_sealevel;temperature;humidity
14242;BME280;7205;50.864;12.766;2023-06-22T00:00:49;97951.34;;;20.06;93.58
14242;BME280;7205;50.864;12.766;2023-06-22T00:03:17;97950.75;;;20.04;93.71
14242;BME280;7205;50.864;12.766;2023-06-22T00:05:44;97952.59;;;20.03;93.71
14242;BME280;7205;50.864;12.766;2023-06-22T00:08:11;97949.31;;;20.01;93.80
14242;BME280;7205;50.864;12.766;2023-06-22T00:10:38;97941.50;;;19.99;94.12
14242;BME280;7205;50.864;12.766;2023-06-22T00:13:06;97935.34;;;19.99;94.15
14242;BME280;7205;50.864;12.766;2023-06-22T00:15:33;97930.22;;;19.98;94.40
14242;BME280;7205;50.864;12.766;2023-06-22T00:18:01;97927.72;;;19.96;94.47
14242;BME280;7205;50.864;12.766;2023-06-22T00:20:28;97923.44;;;19.95;94.81
14242;BME280;7205;50.864;12.766;2023-06-22T00:22:55;97921.81;;;19.94;94.89
14242;BME280;7205;50.864;12.766;2023-06-22T00:25:22;97920.38;;;19.91;95.00
14242;BME280;7205;50.864;12.766;2023-06-22T00:27:49;97923.28;;;19.90;95.01
14242;BME280;7205;50.864;12.766;2023-06-22T00:30:16;97923.53;;;19.88;95.21
14242;BME280;7205;50.864;12.766;2023-06-22T00:32:44;97922.91;;;19.86;95.38
14242;BME280;7205;50.864;12.766;2023-06-22T00:35:15;97948.91;;;19.86;95.40
14242;BME280;7205;50.864;12.766;2023-06-22T00:37:41;97940.28;;;19.84;95.56
14242;BME280;7205;50.864;12.766;2023-06-22T00:40:09;97944.22;;;19.81;95.62
14242;BME280;7205;50.864;12.766;2023-06-22T00:42:37;97947.13;;;19.80;95.59
14242;BME280;7205;50.864;12.766;2023-06-22T00:45:05;97944.91;;;19.77;95.92
14242;BME280;7205;50.864;12.766;2023-06-22T00:47:34;97941.63;;;19.75;95.93
14242;BME280;7205;50.864;12.766;2023-06-22T00:50:06;97942.09;;;19.72;96.12
14242;BME280;7205;50.864;12.766;2023-06-22T00:52:35;97947.69;;;19.70;96.08
14242;BME280;7205;50.864;12.766;2023-06-22T00:55:02;97938.22;;;19.68;96.12
14242;BME280;7205;50.864;12.766;2023-06-22T00:57:30;97936.00;;;19.65;96.38
14242;BME280;7205;50.864;12.766;2023-06-22T00:59:57;97938.91;;;19.63;96.42
14242;BME280;7205;50.864;12.766;2023-06-22T01:02:24;97940.97;;;19.61;96.63
14242;BME280;7205;50.864;12.766;2023-06-22T01:04:51;97937.69;;;19.59;96.62
14242;BME280;7205;50.864;12.766;2023-06-22T01:07:26;97945.38;;;19.56;96.68
14242;BME280;7205;50.864;12.766;2023-06-22T01:10:12;97951.19;;;19.53;96.81
14242;BME280;7205;50.864;12.766;2023-06-22T01:12:45;97937.19;;;19.51;97.19
14242;BME280;7205;50.864;12.766;2023-06-22T01:15:24;97939.28;;;19.49;97.04
14242;BME280;7205;50.864;12.766;2023-06-22T01:17:52;97933.34;;;19.47;97.31
14242;BME280;7205;50.864;12.766;2023-06-22T01:20:20;97925.53;;;19.45;97.44
14242;BME280;7205;50.864;12.766;2023-06-22T01:22:59;97925.97;;;19.42;97.51
14242;BME280;7205;50.864;12.766;2023-06-22T01:25:36;97928.84;;;19.41;97.60
14242;BME280;7205;50.864;12.766;2023-06-22T01:28:20;97925.22;;;19.35;97.74
14242;BME280;7205;50.864;12.766;2023-06-22T01:30:51;97932.44;;;19.35;97.93
14242;BME280;7205;50.864;12.766;2023-06-22T01:33:33;97937.19;;;19.33;98.16
14242;BME280;7205;50.864;12.766;2023-06-22T01:36:01;97932.88;;;19.32;98.50
14242;BME280;7205;50.864;12.766;2023-06-22T01:38:29;97927.75;;;19.30;98.49
14242;BME280;7205;50.864;12.766;2023-06-22T01:40:57;97931.66;;;19.28;98.50
14242;BME280;7205;50.864;12.766;2023-06-22T01:43:25;97921.16;;;19.26;98.70
14242;BME280;7205;50.864;12.766;2023-06-22T01:45:57;97910.91;;;19.23;99.04
14242;BME280;7205;50.864;12.766;2023-06-22T01:48:24;97918.13;;;19.23;99.27
14242;BME280;7205;50.864;12.766;2023-06-22T01:50:52;97924.16;;;19.18;99.50
14242;BME280;7205;50.864;12.766;2023-06-22T01:53:20;97920.63;;;19.18;99.69
14242;BME280;7205;50.864;12.766;2023-06-22T01:55:47;97924.59;;;19.15;100.00
14242;BME280;7205;50.864;12.766;2023-06-22T01:58:14;97914.34;;;19.12;100.00
14242;BME280;7205;50.864;12.766;2023-06-22T02:00:45;97919.88;;;19.11;100.00
14242;BME280;7205;50.864;12.766;2023-06-22T02:03:19;97917.66;;;19.08;100.00
14242;BME280;7205;50.864;12.766;2023-06-22T02:05:49;97925.09;;;19.06;100.00
14242;BME280;7205;50.864;12.766;2023-06-22T02:08:20;97927.19;;;19.04;100.00
14242;BME280;7205;50.864;12.766;2023-06-22T02:10:48;97932.53;;;19.04;100.00
14242;BME280;7205;50.864;12.766;2023-06-22T02:13:15;97937.06;;;19.03;100.00
14242;BME280;7205;50.864;12.766;2023-06-22T02:15:43;97942.66;;;19.02;100.00
14242;BME280;7205;50.864;12.766;2023-06-22T02:18:12;97941.81;;;19.01;100.00
14242;BME280;7205;50.864;12.766;2023-06-22T02:20:40;97949.84;;;19.01;100.00
14242;BME280;7205;50.864;12.766;2023-06-22T02:23:07;97948.44;;;18.99;100.00
14242;BME280;7205;50.864;12.766;2023-06-22T02:25:35;97948.44;;;18.99;100.00
14242;BME280;7205;50.864;12.766;2023-06-22T02:28:02;97950.28;;;18.98;100.00
14242;BME280;7205;50.864;12.766;2023-06-22T02:30:29;97948.44;;;18.99;100.00
14242;BME280;7205;50.864;12.766;2023-06-22T02:32:56;97940.63;;;18.97;100.00
14242;BME280;7205;50.864;12.766;2023-06-22T02:35:25;97929.34;;;18.95;100.00
14242;BME280;7205;50.864;12.766;2023-06-22T02:37:53;97920.47;;;18.95;100.00
14242;BME280;7205;50.864;12.766;2023-06-22T02:40:20;97916.97;;;18.94;100.00
14242;BME280;7205;50.864;12.766;2023-06-22T02:42:47;97915.13;;;18.95;100.00
14242;BME280;7205;50.864;12.766;2023-06-22T02:45:15;97905.69;;;18.92;100.00
14242;BME280;7205;50.864;12.766;2023-06-22T02:47:42;97904.03;;;18.91;100.00
14242;BME280;7205;50.864;12.766;2023-06-22T02:50:09;97913.72;;;18.92;100.00
14242;BME280;7205;50.864;12.766;2023-06-22T02:52:36;97928.13;;;18.91;100.00
14242;BME280;7205;50.864;12.766;2023-06-22T02:55:06;97935.13;;;18.92;100.00
14242;BME280;7205;50.864;12.766;2023-06-22T02:57:34;97935.13;;;18.92;100.00
14242;BME280;7205;50.864;12.766;2023-06-22T03:00:03;97932.44;;;18.92;100.00
14242;BME280;7205;50.864;12.766;2023-06-22T03:02:38;97923.59;;;18.92;100.00
14242;BME280;7205;50.864;12.766;2023-06-22T03:05:05;97921.31;;;18.95;100.00
14242;BME280;7205;50.864;12.766;2023-06-22T03:07:32;97914.91;;;18.96;100.00
14242;BME280;7205;50.864;12.766;2023-06-22T03:09:59;97916.75;;;18.96;100.00
14242;BME280;7205;50.864;12.766;2023-06-22T03:12:27;97924.13;;;19.00;100.00
14242;BME280;7205;50.864;12.766;2023-06-22T03:14:54;97925.53;;;19.03;100.00
14242;BME280;7205;50.864;12.766;2023-06-22T03:17:21;97927.56;;;19.07;100.00
14242;BME280;7205;50.864;12.766;2023-06-22T03:19:48;97927.34;;;19.09;100.00
14242;BME280;7205;50.864;12.766;2023-06-22T03:22:14;97924.81;;;19.14;100.00
14242;BME280;7205;50.864;12.766;2023-06-22T03:24:41;97914.50;;;19.17;100.00
14242;BME280;7205;50.864;12.766;2023-06-22T03:27:08;97923.25;;;19.24;100.00
14242;BME280;7205;50.864;12.766;2023-06-22T03:29:36;97919.72;;;19.30;100.00
14242;BME280;7205;50.864;12.766;2023-06-22T03:32:04;97927.44;;;19.38;100.00
14242;BME280;7205;50.864;12.766;2023-06-22T03:34:31;97921.41;;;19.43;100.00
14242;BME280;7205;50.864;12.766;2023-06-22T03:37:00;97909.00;;;19.48;100.00
14242;BME280;7205;50.864;12.766;2023-06-22T03:39:26;97913.06;;;19.51;100.00
14242;BME280;7205;50.864;12.766;2023-06-22T03:41:53;97910.75;;;19.54;100.00
14242;BME280;7205;50.864;12.766;2023-06-22T03:44:20;97912.19;;;19.57;100.00
14242;BME280;7205;50.864;12.766;2023-06-22T03:46:48;97913.16;;;19.62;100.00
14242;BME280;7205;50.864;12.766;2023-06-22T03:49:18;97918.06;;;19.65;100.00
14242;BME280;7205;50.864;12.766;2023-06-22T03:51:48;97927.03;;;19.71;100.00
14242;BME280;7205;50.864;12.766;2023-06-22T03:54:15;97926.38;;;19.75;100.00
14242;BME280;7205;50.864;12.766;2023-06-22T03:56:42;97935.16;;;19.82;100.00
14242;BME280;7205;50.864;12.766;2023-06-22T03:59:09;97935.88;;;19.89;100.00
14242;BME280;7205;50.864;12.766;2023-06-22T04:01:36;97947.69;;;20.00;100.00
14242;BME280;7205;50.864;12.766;2023-06-22T04:04:05;97957.44;;;20.13;100.00
14242;BME280;7205;50.864;12.766;2023-06-22T04:06:32;97964.25;;;20.27;100.00
14242;BME280;7205;50.864;12.766;2023-06-22T04:09:00;97970.63;;;20.44;100.00
14242;BME280;7205;50.864;12.766;2023-06-22T04:11:28;97984.19;;;20.60;100.00
14242;BME280;7205;50.864;12.766;2023-06-22T04:13:54;97985.16;;;20.77;100.00
14242;BME280;7205;50.864;12.766;2023-06-22T04:16:21;97984.25;;;20.95;100.00
14242;BME280;7205;50.864;12.766;2023-06-22T04:18:48;97990.59;;;21.12;100.00
14242;BME280;7205;50.864;12.766;2023-06-22T04:21:16;98002.63;;;21.33;100.00
14242;BME280;7205;50.864;12.766;2023-06-22T04:23:45;98006.25;;;21.50;100.00
14242;BME280;7205;50.864;12.766;2023-06-22T04:26:11;98023.31;;;21.67;100.00
14242;BME280;7205;50.864;12.766;2023-06-22T04:28:39;98032.53;;;21.82;99.90
14242;BME280;7205;50.864;12.766;2023-06-22T04:31:06;98033.91;;;21.96;98.81
14242;BME280;7205;50.864;12.766;2023-06-22T04:33:32;98035.75;;;22.07;97.54
14242;BME280;7205;50.864;12.766;2023-06-22T04:35:59;98029.53;;;22.18;96.15
14242;BME280;7205;50.864;12.766;2023-06-22T04:38:28;98030.06;;;22.32;94.66
14242;BME280;7205;50.864;12.766;2023-06-22T04:40:58;98040.28;;;22.47;93.58
14242;BME280;7205;50.864;12.766;2023-06-22T04:43:26;98028.66;;;22.58;92.35
14242;BME280;7205;50.864;12.766;2023-06-22T04:45:55;98028.59;;;22.69;91.24
14242;BME280;7205;50.864;12.766;2023-06-22T04:48:28;98015.06;;;22.81;89.77
14242;BME280;7205;50.864;12.766;2023-06-22T04:50:58;98006.94;;;22.92;89.10
14242;BME280;7205;50.864;12.766;2023-06-22T04:53:31;97996.56;;;23.01;87.97
14242;BME280;7205;50.864;12.766;2023-06-22T04:55:58;97985.13;;;23.10;86.87
14242;BME280;7205;50.864;12.766;2023-06-22T04:58:25;97991.19;;;23.17;86.13
14242;BME280;7205;50.864;12.766;2023-06-22T05:00:54;97993.69;;;23.24;85.37
14242;BME280;7205;50.864;12.766;2023-06-22T05:03:22;97991.13;;;23.29;84.48
14242;BME280;7205;50.864;12.766;2023-06-22T05:05:51;97973.94;;;23.35;84.10
14242;BME280;7205;50.864;12.766;2023-06-22T05:08:19;97974.84;;;23.40;83.75
14242;BME280;7205;50.864;12.766;2023-06-22T05:10:47;97972.84;;;23.52;84.46
14242;BME280;7205;50.864;12.766;2023-06-22T05:13:14;97980.63;;;23.71;84.87
14242;BME280;7205;50.864;12.766;2023-06-22T05:15:41;97968.16;;;23.86;84.94
14242;BME280;7205;50.864;12.766;2023-06-22T05:18:08;97971.63;;;24.03;84.11
14242;BME280;7205;50.864;12.766;2023-06-22T05:20:34;97974.47;;;24.18;83.36
14242;BME280;7205;50.864;12.766;2023-06-22T05:23:01;97970.00;;;24.29;82.16
14242;BME280;7205;50.864;12.766;2023-06-22T05:28:07;97940.00;;;24.52;80.12
14242;BME280;7205;50.864;12.766;2023-06-22T05:30:36;97900.91;;;24.59;78.65
14242;BME280;7205;50.864;12.766;2023-06-22T05:33:03;97825.31;;;24.64;78.00
14242;BME280;7205;50.864;12.766;2023-06-22T05:35:30;97762.91;;;24.66;76.82
14242;BME280;7205;50.864;12.766;2023-06-22T05:37:56;97727.81;;;24.66;75.79
14242;BME280;7205;50.864;12.766;2023-06-22T05:40:23;97751.00;;;24.62;74.65
14242;BME280;7205;50.864;12.766;2023-06-22T05:42:50;97791.47;;;24.57;73.78
14242;BME280;7205;50.864;12.766;2023-06-22T05:45:18;97799.56;;;24.52;73.38
14242;BME280;7205;50.864;12.766;2023-06-22T05:47:45;97806.81;;;24.46;73.51
14242;BME280;7205;50.864;12.766;2023-06-22T05:50:12;97790.06;;;24.44;73.62
14242;BME280;7205;50.864;12.766;2023-06-22T05:52:38;97774.66;;;24.45;73.07
14242;BME280;7205;50.864;12.766;2023-06-22T05:55:06;97777.38;;;24.50;73.38
14242;BME280;7205;50.864;12.766;2023-06-22T05:57:33;97791.47;;;24.57;73.25
14242;BME280;7205;50.864;12.766;2023-06-22T05:59:59;97806.72;;;24.68;72.73
14242;BME280;7205;50.864;12.766;2023-06-22T06:02:27;97817.06;;;24.81;72.34
14242;BME280;7205;50.864;12.766;2023-06-22T06:04:54;97821.75;;;24.96;71.87
14242;BME280;7205;50.864;12.766;2023-06-22T06:07:21;97834.28;;;25.12;70.80
14242;BME280;7205;50.864;12.766;2023-06-22T06:09:48;97837.28;;;25.25;70.03
14242;BME280;7205;50.864;12.766;2023-06-22T06:12:14;97831.47;;;25.43;69.44
14242;BME280;7205;50.864;12.766;2023-06-22T06:14:41;97829.09;;;25.62;68.77
14242;BME280;7205;50.864;12.766;2023-06-22T06:17:08;97828.88;;;25.83;67.88
14242;BME280;7205;50.864;12.766;2023-06-22T06:19:36;97830.53;;;25.99;66.46
14242;BME280;7205;50.864;12.766;2023-06-22T06:22:03;97834.66;;;26.12;65.16
14242;BME280;7205;50.864;12.766;2023-06-22T06:24:30;97843.03;;;26.21;64.34
14242;BME280;7205;50.864;12.766;2023-06-22T06:26:57;97836.00;;;26.25;63.06
14242;BME280;7205;50.864;12.766;2023-06-22T06:29:24;97840.59;;;26.24;62.10
14242;BME280;7205;50.864;12.766;2023-06-22T06:31:51;97853.06;;;26.25;61.44
14242;BME280;7205;50.864;12.766;2023-06-22T06:34:17;97856.59;;;26.26;61.58
14242;BME280;7205;50.864;12.766;2023-06-22T06:36:46;97852.50;;;26.28;61.64
14242;BME280;7205;50.864;12.766;2023-06-22T06:39:12;97856.31;;;26.27;61.43
14242;BME280;7205;50.864;12.766;2023-06-22T06:41:39;97860.63;;;26.28;61.46
14242;BME280;7205;50.864;12.766;2023-06-22T06:44:14;97854.13;;;26.29;61.77
14242;BME280;7205;50.864;12.766;2023-06-22T06:46:40;97854.13;;;26.29;61.77
14242;BME280;7205;50.864;12.766;2023-06-22T06:49:08;97863.34;;;26.28;61.26
14242;BME280;7205;50.864;12.766;2023-06-22T06:51:34;97862.81;;;26.26;61.32
14242;BME280;7205;50.864;12.766;2023-06-22T06:54:02;97858.47;;;26.25;60.96
14242;BME280;7205;50.864;12.766;2023-06-22T06:56:29;97864.44;;;26.22;61.01
14242;BME280;7205;50.864;12.766;2023-06-22T06:58:58;97862.25;;;26.19;61.27
14242;BME280;7205;50.864;12.766;2023-06-22T07:01:25;97867.16;;;26.17;60.99
14242;BME280;7205;50.864;12.766;2023-06-22T07:03:52;97866.03;;;26.13;60.97
14242;BME280;7205;50.864;12.766;2023-06-22T07:06:19;97862.50;;;26.13;60.87
14242;BME280;7205;50.864;12.766;2023-06-22T07:08:45;97860.63;;;26.13;61.06
14242;BME280;7205;50.864;12.766;2023-06-22T07:11:13;97860.09;;;26.16;60.96
14242;BME280;7205;50.864;12.766;2023-06-22T07:13:41;97868.47;;;26.20;60.60
14242;BME280;7205;50.864;12.766;2023-06-22T07:16:07;97861.72;;;26.22;60.46
14242;BME280;7205;50.864;12.766;2023-06-22T07:18:34;97870.38;;;26.29;60.47
14242;BME280;7205;50.864;12.766;2023-06-22T07:21:01;97866.06;;;26.38;59.54
14242;BME280;7205;50.864;12.766;2023-06-22T07:23:29;97860.94;;;26.47;58.96
14242;BME280;7205;50.864;12.766;2023-06-22T07:25:55;97854.13;;;26.54;58.23
14242;BME280;7205;50.864;12.766;2023-06-22T07:28:24;97856.84;;;26.64;57.58
14242;BME280;7205;50.864;12.766;2023-06-22T07:30:51;97855.25;;;26.73;57.56
14242;BME280;7205;50.864;12.766;2023-06-22T07:33:17;97856.84;;;26.79;56.84
14242;BME280;7205;50.864;12.766;2023-06-22T07:35:44;97847.09;;;26.83;56.43
14242;BME280;7205;50.864;12.766;2023-06-22T07:38:13;97852.25;;;26.85;56.33
14242;BME280;7205;50.864;12.766;2023-06-22T07:40:40;97852.25;;;26.85;55.54
14242;BME280;7205;50.864;12.766;2023-06-22T07:43:07;97846.28;;;26.83;55.49
14242;BME280;7205;50.864;12.766;2023-06-22T07:45:35;97850.91;;;26.82;55.99
14242;BME280;7205;50.864;12.766;2023-06-22T07:48:02;97845.22;;;26.84;56.36
14242;BME280;7205;50.864;12.766;2023-06-22T07:50:29;97836.25;;;26.88;56.60
14242;BME280;7205;50.864;12.766;2023-06-22T07:52:56;97841.66;;;26.93;55.82
14242;BME280;7205;50.864;12.766;2023-06-22T07:55:23;97838.94;;;26.98;55.39
14242;BME280;7205;50.864;12.766;2023-06-22T07:57:50;97844.06;;;27.05;54.83
14242;BME280;7205;50.864;12.766;2023-06-22T08:00:17;97839.72;;;27.09;53.90
14242;BME280;7205;50.864;12.766;2023-06-22T08:02:47;97840.00;;;27.12;53.94
14242;BME280;7205;50.864;12.766;2023-06-22T08:05:14;97832.13;;;27.16;53.85
14242;BME280;7205;50.864;12.766;2023-06-22T08:07:41;97833.16;;;27.20;53.75
14242;BME280;7205;50.864;12.766;2023-06-22T08:10:11;97833.16;;;27.25;53.16
14242;BME280;7205;50.864;12.766;2023-06-22T08:12:38;97826.91;;;27.30;52.96
14242;BME280;7205;50.864;12.766;2023-06-22T08:15:06;97820.41;;;27.36;52.62
14242;BME280;7205;50.864;12.766;2023-06-22T08:17:36;97829.09;;;27.38;52.62
14242;BME280;7205;50.864;12.766;2023-06-22T08:20:05;97832.06;;;27.41;52.31
14242;BME280;7205;50.864;12.766;2023-06-22T08:22:35;97819.53;;;27.45;52.68
14242;BME280;7205;50.864;12.766;2023-06-22T08:25:03;97814.38;;;27.49;52.13
14242;BME280;7205;50.864;12.766;2023-06-22T08:27:30;97811.91;;;27.52;51.77
14242;BME280;7205;50.864;12.766;2023-06-22T08:29:58;97814.06;;;27.55;52.18
14242;BME280;7205;50.864;12.766;2023-06-22T08:32:25;97817.84;;;27.59;51.86
14242;BME280;7205;50.864;12.766;2023-06-22T08:34:52;97817.28;;;27.62;51.95
14242;BME280;7205;50.864;12.766;2023-06-22T08:37:20;97815.38;;;27.68;52.12
14242;BME280;7205;50.864;12.766;2023-06-22T08:39:56;97806.09;;;27.74;51.87
14242;BME280;7205;50.864;12.766;2023-06-22T08:42:22;97806.88;;;27.79;51.37
14242;BME280;7205;50.864;12.766;2023-06-22T08:44:51;97798.97;;;27.83;51.07
14242;BME280;7205;50.864;12.766;2023-06-22T08:47:18;97792.69;;;27.87;50.80
14242;BME280;7205;50.864;12.766;2023-06-22T08:49:45;97787.56;;;27.91;50.62
14242;BME280;7205;50.864;12.766;2023-06-22T08:52:13;97789.41;;;27.95;50.00
14242;BME280;7205;50.864;12.766;2023-06-22T08:54:41;97791.25;;;28.00;50.17
14242;BME280;7205;50.864;12.766;2023-06-22T08:57:07;97793.94;;;28.05;50.38
14242;BME280;7205;50.864;12.766;2023-06-22T08:59:34;97796.91;;;28.08;49.99
14242;BME280;7205;50.864;12.766;2023-06-22T09:02:01;97801.50;;;28.13;49.79
14242;BME280;7205;50.864;12.766;2023-06-22T09:04:28;97803.38;;;28.17;49.30
14242;BME280;7205;50.864;12.766;2023-06-22T09:06:55;97796.78;;;28.23;49.17
14242;BME280;7205;50.864;12.766;2023-06-22T09:09:22;97797.00;;;28.32;49.15
14242;BME280;7205;50.864;12.766;2023-06-22T09:11:50;97793.16;;;28.38;49.10
14242;BME280;7205;50.864;12.766;2023-06-22T09:14:17;97792.81;;;28.45;49.13
14242;BME280;7205;50.864;12.766;2023-06-22T09:16:44;97787.91;;;28.52;48.92
14242;BME280;7205;50.864;12.766;2023-06-22T09:19:11;97780.19;;;28.59;48.94
14242;BME280;7205;50.864;12.766;2023-06-22T09:21:38;97780.97;;;28.64;48.24
14242;BME280;7205;50.864;12.766;2023-06-22T09:24:05;97778.19;;;28.69;48.16
14242;BME280;7205;50.864;12.766;2023-06-22T09:26:32;97772.72;;;28.74;47.89
14242;BME280;7205;50.864;12.766;2023-06-22T09:29:00;97767.75;;;28.81;47.27
14242;BME280;7205;50.864;12.766;2023-06-22T09:31:27;97772.59;;;28.84;46.88
14242;BME280;7205;50.864;12.766;2023-06-22T09:33:54;97761.94;;;28.88;46.96
14242;BME280;7205;50.864;12.766;2023-06-22T09:36:21;97768.94;;;28.94;46.67
14242;BME280;7205;50.864;12.766;2023-06-22T09:38:49;97762.59;;;29.03;46.57
14242;BME280;7205;50.864;12.766;2023-06-22T09:41:20;97757.91;;;29.09;47.04
14242;BME280;7205;50.864;12.766;2023-06-22T09:43:47;97757.28;;;29.17;46.75
14242;BME280;7205;50.864;12.766;2023-06-22T09:46:16;97766.41;;;29.26;46.34
14242;BME280;7205;50.864;12.766;2023-06-22T09:48:43;97762.03;;;29.30;45.96
14242;BME280;7205;50.864;12.766;2023-06-22T09:51:09;97764.69;;;29.35;45.59
14242;BME280;7205;50.864;12.766;2023-06-22T09:53:36;97754.53;;;29.40;45.30
14242;BME280;7205;50.864;12.766;2023-06-22T09:56:04;97751.16;;;29.48;45.48
14242;BME280;7205;50.864;12.766;2023-06-22T09:58:31;97756.97;;;29.61;45.09
14242;BME280;7205;50.864;12.766;2023-06-22T10:00:58;97749.19;;;29.73;44.67
14242;BME280;7205;50.864;12.766;2023-06-22T10:03:26;97758.84;;;29.84;44.73
14242;BME280;7205;50.864;12.766;2023-06-22T10:05:53;97747.78;;;29.94;44.52
14242;BME280;7205;50.864;12.766;2023-06-22T10:08:20;97747.69;;;29.99;44.51
14242;BME280;7205;50.864;12.766;2023-06-22T10:10:47;97749.81;;;30.02;44.64
14242;BME280;7205;50.864;12.766;2023-06-22T10:13:13;97747.31;;;30.05;44.31
14242;BME280;7205;50.864;12.766;2023-06-22T10:15:40;97750.56;;;30.07;44.10
14242;BME280;7205;50.864;12.766;2023-06-22T10:18:07;97746.13;;;30.11;44.19
14242;BME280;7205;50.864;12.766;2023-06-22T10:20:35;97757.25;;;30.15;43.63
14242;BME280;7205;50.864;12.766;2023-06-22T10:23:02;97747.66;;;30.17;43.42
14242;BME280;7205;50.864;12.766;2023-06-22T10:25:28;97739.34;;;30.27;43.57
14242;BME280;7205;50.864;12.766;2023-06-22T10:27:55;97738.56;;;30.40;43.37
14242;BME280;7205;50.864;12.766;2023-06-22T10:30:22;97740.50;;;30.53;43.15
14242;BME280;7205;50.864;12.766;2023-06-22T10:32:49;97734.25;;;30.66;42.80
14242;BME280;7205;50.864;12.766;2023-06-22T10:35:16;97735.41;;;30.79;43.17
14242;BME280;7205;50.864;12.766;2023-06-22T10:37:45;97729.25;;;30.87;42.76
14242;BME280;7205;50.864;12.766;2023-06-22T10:40:13;97733.59;;;30.88;42.50
14242;BME280;7205;50.864;12.766;2023-06-22T10:42:41;97730.59;;;30.90;42.22
14242;BME280;7205;50.864;12.766;2023-06-22T10:45:08;97720.97;;;30.92;42.51
14242;BME280;7205;50.864;12.766;2023-06-22T10:47:35;97713.59;;;30.93;42.33
14242;BME280;7205;50.864;12.766;2023-06-22T10:50:03;97710.66;;;30.89;41.71
14242;BME280;7205;50.864;12.766;2023-06-22T10:52:30;97715.91;;;30.86;42.23
14242;BME280;7205;50.864;12.766;2023-06-22T10:54:59;97705.81;;;30.86;42.25
14242;BME280;7205;50.864;12.766;2023-06-22T10:57:25;97713.91;;;30.91;42.40
14242;BME280;7205;50.864;12.766;2023-06-22T10:59:52;97711.66;;;30.93;41.96
14242;BME280;7205;50.864;12.766;2023-06-22T11:02:19;97703.78;;;30.92;41.84
14242;BME280;7205;50.864;12.766;2023-06-22T11:04:46;97708.44;;;30.91;42.02
14242;BME280;7205;50.864;12.766;2023-06-22T11:07:13;97713.09;;;30.91;42.33
14242;BME280;7205;50.864;12.766;2023-06-22T11:09:42;97710.38;;;30.91;42.25
14242;BME280;7205;50.864;12.766;2023-06-22T11:12:11;97707.00;;;30.94;41.99
14242;BME280;7205;50.864;12.766;2023-06-22T11:14:38;97705.31;;;30.98;41.88
14242;BME280;7205;50.864;12.766;2023-06-22T11:17:05;97704.06;;;31.04;41.56
14242;BME280;7205;50.864;12.766;2023-06-22T11:19:32;97696.91;;;31.08;41.56
14242;BME280;7205;50.864;12.766;2023-06-22T11:21:59;97699.53;;;31.13;41.47
14242;BME280;7205;50.864;12.766;2023-06-22T11:24:26;97704.56;;;31.19;41.78
14242;BME280;7205;50.864;12.766;2023-06-22T11:26:52;97688.28;;;31.28;41.60
14242;BME280;7205;50.864;12.766;2023-06-22T11:29:21;97692.22;;;31.35;41.62
14242;BME280;7205;50.864;12.766;2023-06-22T11:31:47;97684.53;;;31.37;41.15
14242;BME280;7205;50.864;12.766;2023-06-22T11:34:14;97685.97;;;31.35;41.05
14242;BME280;7205;50.864;12.766;2023-06-22T11:36:41;97679.47;;;31.31;41.03
14242;BME280;7205;50.864;12.766;2023-06-22T11:39:08;97679.47;;;31.31;41.06
14242;BME280;7205;50.864;12.766;2023-06-22T11:41:36;97672.88;;;31.32;40.83
14242;BME280;7205;50.864;12.766;2023-06-22T11:44:03;97672.31;;;31.35;40.76
14242;BME280;7205;50.864;12.766;2023-06-22T11:46:32;97670.25;;;31.40;41.12
14242;BME280;7205;50.864;12.766;2023-06-22T11:48:58;97662.16;;;31.49;40.64
14242;BME280;7205;50.864;12.766;2023-06-22T11:51:25;97658.78;;;31.52;40.81
14242;BME280;7205;50.864;12.766;2023-06-22T11:53:52;97654.16;;;31.52;40.54
14242;BME280;7205;50.864;12.766;2023-06-22T11:56:19;97657.69;;;31.53;40.28
14242;BME280;7205;50.864;12.766;2023-06-22T11:58:45;97647.88;;;31.52;40.22
14242;BME280;7205;50.864;12.766;2023-06-22T12:01:12;97648.69;;;31.52;40.10
14242;BME280;7205;50.864;12.766;2023-06-22T12:03:42;97648.56;;;31.57;40.53
14242;BME280;7205;50.864;12.766;2023-06-22T12:06:09;97642.34;;;31.65;40.58
14242;BME280;7205;50.864;12.766;2023-06-22T12:08:37;97628.44;;;31.75;40.65
14242;BME280;7205;50.864;12.766;2023-06-22T12:11:04;97612.63;;;31.86;40.50
14242;BME280;7205;50.864;12.766;2023-06-22T12:13:30;97621.69;;;31.95;39.79
14242;BME280;7205;50.864;12.766;2023-06-22T12:15:57;97619.13;;;31.99;40.01
14242;BME280;7205;50.864;12.766;2023-06-22T12:18:24;97617.06;;;32.04;39.66
14242;BME280;7205;50.864;12.766;2023-06-22T12:20:52;97609.06;;;32.08;39.05
14242;BME280;7205;50.864;12.766;2023-06-22T12:23:19;97614.19;;;32.09;38.88
14242;BME280;7205;50.864;12.766;2023-06-22T12:25:46;97610.06;;;32.12;39.00
14242;BME280;7205;50.864;12.766;2023-06-22T12:28:12;97611.16;;;32.11;39.40
14242;BME280;7205;50.864;12.766;2023-06-22T12:30:39;97613.09;;;32.10;39.49
14242;BME280;7205;50.864;12.766;2023-06-22T12:33:06;97608.41;;;32.11;38.96
14242;BME280;7205;50.864;12.766;2023-06-22T12:35:33;97596.97;;;32.09;38.48
14242;BME280;7205;50.864;12.766;2023-06-22T12:38:02;97599.44;;;32.10;38.81
14242;BME280;7205;50.864;12.766;2023-06-22T12:40:31;97597.47;;;32.11;38.79
14242;BME280;7205;50.864;12.766;2023-06-22T12:42:58;97591.06;;;32.07;38.51
14242;BME280;7205;50.864;12.766;2023-06-22T12:45:25;97590.56;;;32.05;38.57
14242;BME280;7205;50.864;12.766;2023-06-22T12:47:54;97592.66;;;32.08;38.54
14242;BME280;7205;50.864;12.766;2023-06-22T12:50:21;97582.72;;;32.12;38.67
14242;BME280;7205;50.864;12.766;2023-06-22T12:52:47;97579.19;;;32.20;38.68
14242;BME280;7205;50.864;12.766;2023-06-22T12:55:15;97567.31;;;32.24;38.84
14242;BME280;7205;50.864;12.766;2023-06-22T12:57:42;97552.22;;;32.27;38.85
14242;BME280;7205;50.864;12.766;2023-06-22T13:00:10;97557.03;;;32.30;38.65
14242;BME280;7205;50.864;12.766;2023-06-22T13:02:37;97559.94;;;32.33;38.91